Time;durP1;ratioP1;P1;durP2;ratioP2;P2;SDS_P1;SDS_P2;PMS_P1;PMS_P2;Temp;Humidity;BMP_temperature;BMP_pressure;BME280_temperature;BME280_humidity;BME280_pressure;Samples;Min_cycle;Max_cycle;Signal;HPM_P1;HPM_P2
2022/08/21 00:01:53;;;;;;;3.60;2.57;;;15.10;99.90;;;;;;6097130;23;20171;-59
2022/08/21 00:04:23;;;;;;;6.23;2.40;;;15.10;99.90;;;;;;6098010;23;20480;-59
2022/08/21 00:06:56;;;;;;;4.83;2.40;;;15.00;99.90;;;;;;6099059;23;20199;-59
2022/08/21 00:09:25;;;;;;;8.50;2.77;;;15.00;99.90;;;;;;6098443;23;20163;-59
2022/08/21 00:11:53;;;;;;;4.50;2.13;;;14.90;99.90;;;;;;6098500;23;20187;-60
2022/08/21 00:14:22;;;;;;;3.77;2.50;;;14.80;99.90;;;;;;6099241;23;20251;-59
2022/08/21 00:16:50;;;;;;;5.00;2.30;;;14.70;99.90;;;;;;6096547;23;20226;-59
2022/08/21 00:19:19;;;;;;;5.73;2.37;;;14.70;99.90;;;;;;6098657;23;20216;-58
2022/08/21 00:21:50;;;;;;;6.13;2.67;;;14.60;99.90;;;;;;6098370;23;20471;-59
2022/08/21 00:24:18;;;;;;;2.80;2.40;;;14.60;99.90;;;;;;6098878;23;20187;-59
2022/08/21 00:26:47;;;;;;;5.50;2.17;;;14.50;99.90;;;;;;6098270;23;20214;-59
2022/08/21 00:29:17;;;;;;;3.97;2.40;;;14.50;99.90;;;;;;6098722;23;20163;-59
2022/08/21 00:31:46;;;;;;;5.40;2.50;;;14.40;99.90;;;;;;6098390;23;20198;-59
2022/08/21 00:34:14;;;;;;;4.70;2.13;;;14.40;99.90;;;;;;6096740;23;20199;-59
2022/08/21 00:36:42;;;;;;;3.20;2.17;;;14.30;99.90;;;;;;6098365;23;20190;-59
2022/08/21 00:39:12;;;;;;;6.70;2.63;;;14.30;99.90;;;;;;6098206;23;20167;-59
2022/08/21 00:41:41;;;;;;;5.33;2.30;;;14.20;99.90;;;;;;6098479;23;20542;-59
2022/08/21 00:44:12;;;;;;;6.07;2.33;;;14.20;99.90;;;;;;6098205;23;20243;-60
2022/08/21 00:46:42;;;;;;;6.57;2.30;;;14.20;99.90;;;;;;6097124;23;20497;-59
2022/08/21 00:49:12;;;;;;;6.17;2.67;;;14.20;99.90;;;;;;6098204;23;20251;-59
2022/08/21 00:51:46;;;;;;;2.77;2.20;;;14.10;99.90;;;;;;6098682;23;20630;-60
2022/08/21 00:54:17;;;;;;;4.07;2.33;;;14.10;99.90;;;;;;6096831;23;20251;-59
2022/08/21 00:56:48;;;;;;;4.67;2.30;;;14.00;99.90;;;;;;6096610;23;20168;-59
2022/08/21 00:59:20;;;;;;;4.23;2.30;;;14.00;99.90;;;;;;6098618;23;20168;-59
2022/08/21 01:06:32;;;;;;;8.33;2.70;;;13.90;99.90;;;;;;6098113;23;20208;-59
2022/08/21 01:09:00;;;;;;;4.20;2.50;;;13.80;99.90;;;;;;6096531;23;20255;-59
2022/08/21 01:11:31;;;;;;;2.40;2.20;;;13.80;99.90;;;;;;6098322;23;20571;-59
2022/08/21 01:13:59;;;;;;;4.67;2.20;;;13.70;99.90;;;;;;6098016;23;20297;-59
2022/08/21 01:16:29;;;;;;;5.27;3.00;;;13.70;99.90;;;;;;6097664;23;20284;-59
2022/08/21 01:18:57;;;;;;;5.57;2.50;;;13.70;99.90;;;;;;6098343;23;20167;-59
2022/08/21 01:21:28;;;;;;;6.43;2.90;;;13.60;99.90;;;;;;6098030;23;20651;-59
2022/08/21 01:23:57;;;;;;;3.80;2.47;;;13.60;99.90;;;;;;6098456;23;20653;-59
2022/08/21 01:26:28;;;;;;;4.47;2.83;;;13.50;99.90;;;;;;6097719;23;20202;-59
2022/08/21 01:29:09;;;;;;;4.47;2.23;;;13.50;99.90;;;;;;6072360;23;20191;-59
2022/08/21 01:31:38;;;;;;;4.97;2.60;;;13.50;99.90;;;;;;6096185;23;20167;-59
2022/08/21 01:34:06;;;;;;;6.50;2.70;;;13.50;99.90;;;;;;6097645;23;20309;-59
2022/08/21 01:36:36;;;;;;;7.90;3.20;;;13.40;99.90;;;;;;6097605;23;20164;-59
2022/08/21 01:39:06;;;;;;;5.00;2.70;;;13.40;99.90;;;;;;6097611;23;20235;-59
2022/08/21 01:41:34;;;;;;;4.33;2.77;;;13.40;99.90;;;;;;6098120;23;20214;-60
2022/08/21 01:44:03;;;;;;;3.37;2.37;;;13.40;99.90;;;;;;6097725;23;20246;-59
2022/08/21 01:46:32;;;;;;;5.13;2.80;;;13.30;99.90;;;;;;6097574;23;20226;-59
2022/08/21 01:49:00;;;;;;;7.37;2.97;;;13.30;99.90;;;;;;6098293;23;20164;-59
2022/08/21 01:51:28;;;;;;;5.10;2.50;;;13.30;99.90;;;;;;6097876;23;20188;-59
2022/08/21 01:53:58;;;;;;;3.90;2.27;;;13.30;99.90;;;;;;6097543;23;20168;-59
2022/08/21 01:56:27;;;;;;;5.50;2.57;;;13.20;99.90;;;;;;6097505;23;20199;-59
2022/08/21 01:58:55;;;;;;;5.80;2.63;;;13.20;99.90;;;;;;6097844;23;20194;-59
2022/08/21 02:06:03;;;;;;;5.17;2.80;;;13.10;99.90;;;;;;6097635;23;20143;-59
2022/08/21 02:08:32;;;;;;;3.63;2.63;;;13.00;99.90;;;;;;6097706;23;20243;-59
2022/08/21 02:11:02;;;;;;;4.67;2.83;;;13.00;99.90;;;;;;6097294;23;20207;-59
2022/08/21 02:13:30;;;;;;;7.10;3.07;;;12.90;99.90;;;;;;6097463;23;20198;-59
2022/08/21 02:15:59;;;;;;;4.63;2.53;;;12.90;99.90;;;;;;6097172;23;20195;-59
2022/08/21 02:18:27;;;;;;;4.80;3.00;;;12.90;99.90;;;;;;6097485;23;20258;-58
2022/08/21 02:20:56;;;;;;;6.67;3.30;;;12.90;99.90;;;;;;6097293;23;20191;-59
2022/08/21 02:23:25;;;;;;;5.40;3.30;;;13.00;99.90;;;;;;6097394;23;20560;-59
2022/08/21 02:25:54;;;;;;;6.83;3.13;;;13.00;99.90;;;;;;6097420;23;20621;-59
2022/08/21 02:28:24;;;;;;;9.50;3.23;;;13.10;99.90;;;;;;6095887;23;20258;-59
2022/08/21 02:30:56;;;;;;;8.10;3.40;;;13.10;99.90;;;;;;6097450;23;20194;-59
2022/08/21 02:33:26;;;;;;;5.40;2.83;;;13.10;99.90;;;;;;6098173;23;20250;-59
2022/08/21 02:35:56;;;;;;;7.17;3.30;;;13.10;99.90;;;;;;6097300;23;20251;-59
2022/08/21 02:38:27;;;;;;;6.63;3.43;;;13.10;99.90;;;;;;6097206;23;20163;-59
2022/08/21 02:40:56;;;;;;;5.13;2.80;;;13.10;99.90;;;;;;6097239;23;20570;-59
2022/08/21 02:43:28;;;;;;;6.23;2.97;;;13.10;99.90;;;;;;6097102;23;20168;-58
2022/08/21 02:45:58;;;;;;;7.70;3.20;;;13.10;99.90;;;;;;6097258;23;20552;-59
2022/08/21 02:48:30;;;;;;;9.40;3.37;;;13.10;99.90;;;;;;6095648;23;20195;-58
2022/08/21 02:51:00;;;;;;;8.60;3.30;;;13.10;99.90;;;;;;6097402;23;20179;-59
2022/08/21 02:53:29;;;;;;;7.20;2.97;;;13.20;99.90;;;;;;6095588;23;20191;-60
2022/08/21 02:56:00;;;;;;;10.67;3.07;;;13.10;99.90;;;;;;6097076;23;20175;-59
2022/08/21 02:58:32;;;;;;;5.57;2.83;;;13.10;99.90;;;;;;6120077;23;20242;-59
2022/08/21 03:01:01;;;;;;;5.97;3.10;;;13.10;99.90;;;;;;6097191;23;20233;-59
2022/08/21 03:08:15;;;;;;;5.53;3.10;;;13.00;99.90;;;;;;6097406;23;20195;-59
2022/08/21 03:10:46;;;;;;;7.33;3.10;;;13.00;99.90;;;;;;6097176;23;20190;-59
2022/08/21 03:13:15;;;;;;;6.93;3.50;;;13.00;99.90;;;;;;6097131;23;20246;-59
2022/08/21 03:15:45;;;;;;;8.43;3.53;;;13.10;99.90;;;;;;6097007;23;20274;-59
2022/08/21 03:18:17;;;;;;;7.47;3.70;;;13.10;99.90;;;;;;6095862;23;20171;-59
2022/08/21 03:20:46;;;;;;;5.70;3.70;;;13.10;99.90;;;;;;6097161;23;20187;-59
2022/08/21 03:23:15;;;;;;;4.43;3.07;;;13.10;99.90;;;;;;6097330;23;20192;-59
2022/08/21 03:25:48;;;;;;;10.10;3.23;;;13.10;99.90;;;;;;6097266;23;20593;-59
2022/08/21 03:28:19;;;;;;;6.67;3.23;;;13.20;99.90;;;;;;6095529;23;20256;-59
2022/08/21 03:30:51;;;;;;;7.10;3.33;;;13.20;99.90;;;;;;6095692;23;20199;-59
2022/08/21 03:33:20;;;;;;;7.43;3.30;;;13.20;99.90;;;;;;6097626;23;20231;-59
2022/08/21 03:36:00;;;;;;;5.73;3.50;;;13.20;99.90;;;;;;6097394;23;20632;-58
2022/08/21 03:38:30;;;;;;;11.07;3.73;;;13.20;99.90;;;;;;6098479;23;20601;-59
2022/08/21 03:40:59;;;;;;;6.90;3.90;;;13.20;99.90;;;;;;6098034;23;20211;-59
2022/08/21 03:43:28;;;;;;;6.93;3.70;;;13.20;99.90;;;;;;6121686;23;20195;-59
2022/08/21 03:46:03;;;;;;;10.43;4.00;;;13.20;99.90;;;;;;6097504;23;20164;-59
2022/08/21 03:48:31;;;;;;;7.07;3.50;;;13.20;99.90;;;;;;6099032;23;20167;-59
2022/08/21 03:51:00;;;;;;;4.77;3.13;;;13.30;99.90;;;;;;6098893;23;20672;-59
2022/08/21 03:53:29;;;;;;;9.33;3.50;;;13.30;99.90;;;;;;6098697;23;20195;-59
2022/08/21 03:55:57;;;;;;;8.40;3.43;;;13.30;99.90;;;;;;6099296;23;20247;-59
2022/08/21 03:58:28;;;;;;;4.90;3.17;;;13.30;99.90;;;;;;6099105;23;20174;-59
2022/08/21 04:00:58;;;;;;;6.80;3.40;;;13.30;99.90;;;;;;6098720;23;20241;-59
2022/08/21 04:09:01;;;;;;;7.50;3.20;;;13.30;99.90;;;;;;6098129;23;20166;-59
2022/08/21 04:11:30;;;;;;;9.37;3.33;;;13.30;99.90;;;;;;6098844;23;20235;-58
2022/08/21 04:13:58;;;;;;;11.50;3.57;;;13.30;99.90;;;;;;6097772;23;20238;-59
2022/08/21 04:16:26;;;;;;;9.43;3.30;;;13.30;99.90;;;;;;6096756;23;20268;-59
2022/08/21 04:18:54;;;;;;;10.17;3.57;;;13.30;99.90;;;;;;6096910;23;20255;-59
2022/08/21 04:21:23;;;;;;;9.87;3.13;;;13.30;99.90;;;;;;6098294;23;20267;-58
2022/08/21 04:23:54;;;;;;;6.53;2.80;;;13.20;99.90;;;;;;6096891;23;20222;-59
2022/08/21 04:26:25;;;;;;;6.47;3.23;;;13.20;99.90;;;;;;6098748;23;20673;-59
2022/08/21 04:28:55;;;;;;;5.03;3.30;;;13.20;99.90;;;;;;6096837;23;20171;-59
2022/08/21 04:31:23;;;;;;;7.97;3.27;;;13.20;99.90;;;;;;6098201;23;20198;-59
2022/08/21 04:33:52;;;;;;;7.20;3.40;;;13.30;99.90;;;;;;6098317;23;20661;-60
2022/08/21 04:36:20;;;;;;;4.47;2.97;;;13.20;99.90;;;;;;6121208;23;20616;-59
2022/08/21 04:38:51;;;;;;;7.63;3.03;;;13.20;99.90;;;;;;6098559;23;20224;-59
2022/08/21 04:41:22;;;;;;;6.87;3.43;;;13.20;99.90;;;;;;6098211;23;20163;-59
2022/08/21 04:43:57;;;;;;;10.17;3.87;;;13.20;99.90;;;;;;6096605;23;20183;-59
2022/08/21 04:46:25;;;;;;;7.00;3.20;;;13.20;99.90;;;;;;6098617;23;20259;-59
2022/08/21 04:48:54;;;;;;;4.30;3.20;;;13.30;99.90;;;;;;6098008;23;20167;-59
2022/08/21 04:51:26;;;;;;;8.07;3.13;;;13.30;99.90;;;;;;6097879;23;20255;-59
2022/08/21 04:54:06;;;;;;;6.77;3.17;;;13.30;99.90;;;;;;6098002;23;20164;-59
2022/08/21 04:56:40;;;;;;;5.17;3.47;;;13.30;99.90;;;;;;6098087;23;20167;-59
2022/08/21 04:59:16;;;;;;;7.10;3.23;;;13.30;99.90;;;;;;6098097;23;20294;-59
2022/08/21 05:01:45;;;;;;;9.17;3.20;;;13.40;99.90;;;;;;6097924;23;20274;-59
2022/08/21 05:09:05;;;;;;;8.83;3.30;;;13.50;99.90;;;;;;6098575;23;20162;-60
2022/08/21 05:11:34;;;;;;;5.37;2.97;;;13.50;99.90;;;;;;6096321;23;20298;-59
2022/08/21 05:14:02;;;;;;;7.70;3.43;;;13.50;99.90;;;;;;6098196;23;20656;-59
2022/08/21 05:16:33;;;;;;;10.37;3.00;;;13.50;99.90;;;;;;6097801;23;20191;-59
2022/08/21 05:19:05;;;;;;;8.90;3.00;;;13.50;99.90;;;;;;6098169;23;20167;-59
2022/08/21 05:21:33;;;;;;;7.57;3.23;;;13.60;99.90;;;;;;6097690;23;20179;-59
2022/08/21 05:24:02;;;;;;;7.03;3.23;;;13.60;99.90;;;;;;6120778;23;20242;-59
2022/08/21 05:26:30;;;;;;;6.20;3.03;;;13.70;99.90;;;;;;6097705;23;20224;-59
2022/08/21 05:28:59;;;;;;;5.30;3.03;;;13.70;99.90;;;;;;6098293;23;20167;-59
2022/08/21 05:31:29;;;;;;;8.33;3.27;;;13.70;99.90;;;;;;6098451;23;20192;-59
2022/08/21 05:33:58;;;;;;;8.90;3.57;;;13.80;99.90;;;;;;6096676;23;20280;-59
2022/08/21 05:36:30;;;;;;;6.17;2.87;;;13.90;99.90;;;;;;6097798;23;20202;-59
2022/08/21 05:38:59;;;;;;;9.87;3.80;;;13.90;99.90;;;;;;6097572;23;20172;-59
2022/08/21 05:41:27;;;;;;;5.73;3.00;;;14.00;99.90;;;;;;6098168;23;20171;-59
2022/08/21 05:43:55;;;;;;;7.00;3.60;;;14.20;99.90;;;;;;6097744;23;20270;-59
2022/08/21 05:46:24;;;;;;;8.63;3.07;;;14.30;99.90;;;;;;6098024;23;20178;-59
2022/08/21 05:48:52;;;;;;;7.40;3.20;;;14.40;99.90;;;;;;6097530;23;20548;-59
2022/08/21 05:51:22;;;;;;;5.80;3.00;;;14.60;99.90;;;;;;6097798;23;20170;-59
2022/08/21 05:53:50;;;;;;;7.50;2.97;;;14.80;99.90;;;;;;6097902;23;20159;-59
2022/08/21 05:56:18;;;;;;;7.43;2.80;;;14.90;99.90;;;;;;6098116;23;20251;-59
2022/08/21 05:58:47;;;;;;;13.37;3.27;;;15.00;99.90;;;;;;6097665;23;20202;-59
2022/08/21 06:01:15;;;;;;;8.00;3.47;;;15.30;99.90;;;;;;6097415;23;20169;-59
2022/08/21 06:03:44;;;;;;;6.27;2.67;;;15.40;99.90;;;;;;6097732;23;20223;-59
2022/08/21 06:14:43;;;;;;;9.33;3.40;;;15.80;99.90;;;;;;6097517;23;20191;-59
2022/08/21 06:17:14;;;;;;;7.10;2.90;;;16.00;99.90;;;;;;6097132;23;20275;-59
2022/08/21 06:19:43;;;;;;;5.97;2.60;;;16.10;99.90;;;;;;6097947;23;20202;-59
2022/08/21 06:22:13;;;;;;;7.10;2.30;;;16.20;99.90;;;;;;6097603;23;20223;-59
2022/08/21 06:24:41;;;;;;;5.67;2.73;;;16.30;99.90;;;;;;6097766;23;20245;-59
2022/08/21 06:27:10;;;;;;;6.83;2.70;;;16.40;99.90;;;;;;6097401;23;20228;-59
2022/08/21 06:29:38;;;;;;;6.80;2.50;;;16.60;99.90;;;;;;6120147;23;20685;-59
2022/08/21 06:32:13;;;;;;;6.10;3.00;;;16.70;99.90;;;;;;6097821;23;20224;-59
2022/08/21 06:34:43;;;;;;;6.80;2.80;;;16.80;99.90;;;;;;6097606;23;20169;-59
2022/08/21 06:37:11;;;;;;;7.90;3.17;;;16.90;99.90;;;;;;6097599;23;20204;-59
2022/08/21 06:39:39;;;;;;;8.33;2.43;;;17.00;99.90;;;;;;6097435;23;20672;-60
2022/08/21 06:42:15;;;;;;;4.87;2.57;;;17.10;99.90;;;;;;6097610;23;20592;-59
2022/08/21 06:44:44;;;;;;;8.13;2.47;;;17.30;99.90;;;;;;6097758;23;20211;-59
2022/08/21 06:47:14;;;;;;;7.80;2.47;;;17.50;99.90;;;;;;6097649;23;20159;-59
2022/08/21 06:49:42;;;;;;;11.17;2.43;;;17.60;99.90;;;;;;6095688;23;20167;-59
2022/08/21 06:52:13;;;;;;;8.10;2.70;;;17.70;99.90;;;;;;6120828;23;20233;-59
2022/08/21 06:54:42;;;;;;;5.53;2.60;;;17.80;99.90;;;;;;6097560;23;20255;-59
2022/08/21 06:57:10;;;;;;;6.40;2.70;;;18.00;99.90;;;;;;6097597;23;20165;-59
2022/08/21 06:59:39;;;;;;;8.70;2.70;;;18.10;99.90;;;;;;6095674;23;20246;-59
2022/08/21 07:02:08;;;;;;;9.03;2.67;;;18.30;99.90;;;;;;6120015;23;20174;-60
2022/08/21 07:04:37;;;;;;;8.13;2.77;;;18.50;99.90;;;;;;6095714;23;20282;-59
2022/08/21 07:07:06;;;;;;;11.43;2.60;;;18.60;99.90;;;;;;6097760;23;20250;-59
2022/08/21 07:13:34;;;;;;;10.93;2.47;;;18.80;99.90;;;;;;6099088;23;20147;-59
2022/08/21 07:16:03;;;;;;;9.57;2.33;;;19.10;99.90;;;;;;6099179;23;20275;-59
2022/08/21 07:18:31;;;;;;;7.23;2.33;;;19.30;99.90;;;;;;6098954;23;20168;-60
2022/08/21 07:21:01;;;;;;;6.23;2.17;;;19.50;99.90;;;;;;6099144;23;20195;-59
2022/08/21 07:27:02;;;;;;;8.00;2.10;;;19.90;99.90;;;;;;6099104;23;20247;-60
2022/08/21 07:29:35;;;;;;;4.80;2.23;;;20.20;99.90;;;;;;6099875;23;20171;-60
2022/08/21 07:32:04;;;;;;;7.60;2.13;;;20.20;99.90;;;;;;6099354;23;20246;-59
2022/08/21 07:34:32;;;;;;;5.13;2.53;;;20.50;99.90;;;;;;6097453;23;20171;-59
2022/08/21 07:37:02;;;;;;;8.73;1.90;;;20.60;99.90;;;;;;6099244;23;20246;-59
2022/08/21 07:39:37;;;;;;;6.40;2.00;;;20.40;99.90;;;;;;6099475;23;20274;-59
2022/08/21 07:42:05;;;;;;;4.07;2.10;;;20.70;99.90;;;;;;6099533;23;20168;-59
2022/08/21 07:44:35;;;;;;;7.73;2.10;;;20.80;99.90;;;;;;6099080;23;20187;-59
2022/08/21 07:47:04;;;;;;;11.67;2.33;;;20.80;99.90;;;;;;6097866;23;20202;-59
2022/08/21 07:49:32;;;;;;;5.93;2.10;;;20.80;99.90;;;;;;6099102;23;20174;-60
2022/08/21 07:52:03;;;;;;;4.77;2.20;;;20.80;99.90;;;;;;6099009;23;20263;-59
2022/08/21 07:54:31;;;;;;;8.23;2.50;;;20.90;99.90;;;;;;6099700;23;20230;-60
2022/08/21 07:57:01;;;;;;;6.23;2.33;;;20.90;99.90;;;;;;6099072;23;20168;-59
2022/08/21 07:59:29;;;;;;;4.03;1.67;;;21.00;99.90;;;;;;6098680;23;20247;-59
2022/08/21 08:01:58;;;;;;;5.27;2.13;;;21.00;99.90;;;;;;6098642;23;20191;-59
2022/08/21 08:04:26;;;;;;;8.90;2.03;;;21.30;99.90;;;;;;6098687;23;20267;-59
2022/08/21 08:06:54;;;;;;;6.50;1.73;;;21.40;99.90;;;;;;6098661;23;20349;-59
2022/08/21 08:09:24;;;;;;;9.83;2.60;;;21.20;99.90;;;;;;6098766;23;20243;-60
2022/08/21 08:16:48;;;;;;;4.77;1.93;;;21.50;99.90;;;;;;6077160;23;20969;-58
2022/08/21 08:19:16;;;;;;;10.90;2.20;;;21.50;99.90;;;;;;6098825;23;20174;-59
2022/08/21 08:21:44;;;;;;;6.97;2.03;;;21.40;99.90;;;;;;6098666;23;20167;-59
2022/08/21 08:24:13;;;;;;;4.70;1.60;;;21.60;99.90;;;;;;6097741;23;20194;-60
2022/08/21 08:26:48;;;;;;;8.00;2.10;;;21.60;99.90;;;;;;6098485;23;20220;-59
2022/08/21 08:29:22;;;;;;;3.33;1.97;;;21.70;99.90;;;;;;6097508;23;20563;-59
2022/08/21 08:31:50;;;;;;;5.53;2.03;;;21.70;99.90;;;;;;6098476;23;20532;-59
2022/08/21 08:34:19;;;;;;;7.93;2.20;;;21.60;99.90;;;;;;6098677;23;20169;-59
2022/08/21 08:36:52;;;;;;;9.40;2.30;;;21.60;99.90;;;;;;6098340;23;20583;-59
2022/08/21 08:39:21;;;;;;;5.10;1.90;;;21.80;99.90;;;;;;6098324;23;20681;-59
2022/08/21 08:42:04;;;;;;;5.43;1.83;;;21.80;99.90;;;;;;6121577;23;20169;-59
2022/08/21 08:44:58;;;;;;;6.03;2.03;;;22.20;99.90;;;;;;6098636;23;20252;-59
2022/08/21 08:47:28;;;;;;;4.97;2.00;;;22.60;99.90;;;;;;6121505;23;20615;-59
2022/08/21 08:50:05;;;;;;;8.50;2.37;;;22.80;99.90;;;;;;6097147;23;20174;-59
2022/08/21 08:52:35;;;;;;;9.17;2.47;;;22.80;99.90;;;;;;6097065;23;20560;-59
2022/08/21 08:55:07;;;;;;;7.70;2.03;;;23.10;99.90;;;;;;6098433;23;20198;-59
2022/08/21 09:02:20;;;;;;;7.23;2.20;;;23.30;99.90;;;;;;6098514;23;20139;-59
2022/08/21 09:04:51;;;;;;;7.07;2.33;;;22.80;99.90;;;;;;6096398;23;20199;-59
2022/08/21 09:07:33;;;;;;;5.67;2.10;;;22.60;99.90;;;;;;6098230;23;20206;-59
2022/08/21 09:10:12;;;;;;;7.57;2.30;;;22.60;99.90;;;;;;6098017;23;20164;-59
2022/08/21 09:12:53;;;;;;;7.07;1.83;;;22.80;99.90;;;;;;6098135;23;20198;-59
2022/08/21 09:15:30;;;;;;;7.17;2.10;;;23.00;99.90;;;;;;6098773;23;20175;-59
2022/08/21 09:18:21;;;;;;;5.60;2.00;;;22.90;99.90;;;;;;6098094;23;20274;-59
2022/08/21 09:21:10;;;;;;;8.87;2.10;;;22.90;99.90;;;;;;6098001;23;20218;-59
2022/08/21 09:23:47;;;;;;;5.00;2.20;;;22.80;99.90;;;;;;6098057;23;20175;-59
2022/08/21 09:26:18;;;;;;;10.87;2.27;;;22.90;99.90;;;;;;6098480;23;20172;-59
2022/08/21 09:28:52;;;;;;;6.20;1.90;;;22.70;99.90;;;;;;6120761;23;20550;-59
2022/08/21 09:31:25;;;;;;;10.43;2.90;;;22.50;99.90;;;;;;6098252;23;20176;-59
2022/08/21 09:34:00;;;;;;;5.60;2.13;;;22.50;99.90;;;;;;6098087;23;20200;-58
2022/08/21 09:36:36;;;;;;;6.30;3.00;;;22.40;99.90;;;;;;6120598;23;20223;-59
2022/08/21 09:39:06;;;;;;;8.80;2.60;;;22.20;99.90;;;;;;6098145;23;20172;-58
2022/08/21 09:41:36;;;;;;;5.00;1.97;;;22.20;99.90;;;;;;6096672;23;20213;-59
2022/08/21 09:44:07;;;;;;;9.60;2.37;;;22.60;99.90;;;;;;6097854;23;20221;-59
2022/08/21 09:46:36;;;;;;;8.00;2.50;;;22.80;99.90;;;;;;6096042;23;20179;-59
2022/08/21 09:49:06;;;;;;;9.93;2.40;;;23.20;99.90;;;;;;6096039;23;20251;-59
2022/08/21 09:51:53;;;;;;;4.27;1.80;;;23.30;99.90;;;;;;6097705;23;20158;-59
2022/08/21 09:54:29;;;;;;;7.17;2.33;;;23.40;99.90;;;;;;6095982;23;20250;-59
2022/08/21 09:59:48;;;;;;;7.85;2.15;;;24.30;99.90;;;;;;6097682;23;20173;-59
2022/08/21 10:02:24;;;;;;;7.95;2.10;;;25.00;99.90;;;;;;6097446;23;20171;-59
2022/08/21 10:05:31;;;;;;;7.80;2.40;;;24.90;99.90;;;;;;6097559;23;20196;-59
2022/08/21 10:08:03;;;;;;;10.30;2.23;;;24.70;99.90;;;;;;6096431;23;20235;-59
2022/08/21 10:10:37;;;;;;;6.87;2.53;;;24.20;99.90;;;;;;6097389;23;20218;-59
2022/08/21 10:13:13;;;;;;;8.73;2.17;;;23.90;99.90;;;;;;6097555;23;20243;-59
2022/08/21 10:15:49;;;;;;;9.80;2.40;;;24.00;99.90;;;;;;6120768;23;20242;-59
2022/08/21 10:18:25;;;;;;;6.10;2.20;;;24.70;99.90;;;;;;6097299;23;20223;-59
2022/08/21 10:21:03;;;;;;;9.03;2.30;;;24.80;99.90;;;;;;6097237;23;20164;-59
2022/08/21 10:23:42;;;;;;;8.87;2.53;;;25.20;99.90;;;;;;6097091;23;20705;-59
2022/08/21 10:26:25;;;;;;;9.38;2.60;;;25.30;99.90;;;;;;6097381;23;20268;-60
2022/08/21 10:29:03;;;;;;;7.00;2.00;;;25.30;99.90;;;;;;6095901;23;20539;-60
2022/08/21 10:31:42;;;;;;;5.43;2.35;;;25.70;99.90;;;;;;6097687;23;20200;-60
2022/08/21 10:34:26;;;;;;;5.35;2.17;;;26.30;99.90;;;;;;6095579;23;20665;-60
2022/08/21 10:37:05;;;;;;;9.10;1.98;;;26.50;99.90;;;;;;6095940;23;20170;-60
2022/08/21 10:39:45;;;;;;;7.45;2.30;;;26.30;99.90;;;;;;6097497;23;20228;-59
2022/08/21 10:42:27;;;;;;;7.20;2.37;;;26.00;99.90;;;;;;6097737;23;20168;-59
2022/08/21 10:45:09;;;;;;;5.90;2.23;;;25.20;99.90;;;;;;6095689;23;20214;-60
2022/08/21 10:47:42;;;;;;;8.67;2.60;;;25.00;99.90;;;;;;6097129;23;20247;-59
2022/08/21 10:50:16;;;;;;;10.47;2.33;;;25.40;99.90;;;;;;6097203;23;20164;-59
2022/08/21 10:53:01;;;;;;;7.03;2.60;;;25.70;99.90;;;;;;6097756;23;20187;-60
2022/08/21 10:55:35;;;;;;;4.25;2.20;;;26.20;99.90;;;;;;6097270;23;20240;-59
2022/08/21 10:58:09;;;;;;;5.13;2.15;;;26.10;99.90;;;;;;6097979;23;20258;-59
2022/08/21 11:00:44;;;;;;;12.60;2.40;;;25.70;99.90;;;;;;6097204;23;20159;-59
2022/08/21 11:03:17;;;;;;;8.83;2.80;;;25.10;99.90;;;;;;6095462;23;20562;-59
2022/08/21 11:05:50;;;;;;;4.27;2.10;;;24.80;99.90;;;;;;6095413;23;20199;-59
2022/08/21 11:08:27;;;;;;;6.47;2.40;;;24.60;99.90;;;;;;6097330;23;20251;-59
2022/08/21 11:11:01;;;;;;;9.87;2.40;;;24.80;99.90;;;;;;6097578;23;20167;-59
2022/08/21 11:13:42;;;;;;;10.93;2.50;;;24.60;99.90;;;;;;6095563;23;20170;-59
2022/08/21 11:16:20;;;;;;;4.87;1.80;;;24.40;99.90;;;;;;6097392;23;20191;-59
2022/08/21 11:18:54;;;;;;;10.47;2.70;;;24.20;99.90;;;;;;6120111;23;20218;-59
2022/08/21 11:21:42;;;;;;;7.03;2.50;;;24.30;99.90;;;;;;6096989;23;20609;-59
2022/08/21 11:24:24;;;;;;;4.57;2.43;;;25.00;99.90;;;;;;6097490;23;20226;-60
2022/08/21 11:39:23;;;;;;;8.23;2.40;;;26.60;99.90;;;;;;6069839;23;20153;-93
2022/08/21 11:42:37;;;;;;;5.47;2.33;;;27.00;99.90;;;;;;6069807;23;20170;-92
2022/08/21 11:45:48;;;;;;;5.72;2.15;;;27.10;99.90;;;;;;6069361;23;20309;-91
2022/08/21 11:49:17;;;;;;;5.90;2.20;;;26.40;99.90;;;;;;6069319;23;20559;-92
2022/08/21 11:52:30;;;;;;;6.72;2.33;;;25.80;99.90;;;;;;6070243;23;20221;-91
2022/08/21 11:55:42;;;;;;;9.07;2.25;;;26.20;99.90;;;;;;6069606;23;20240;-90
2022/08/21 11:58:52;;;;;;;8.70;2.50;;;26.10;99.90;;;;;;6069835;23;20199;-91
2022/08/21 12:02:01;;;;;;;7.10;2.17;;;25.70;99.90;;;;;;6071538;23;20219;-91
2022/08/21 12:18:20;;;;;;;6.33;2.37;;;25.70;99.90;;;;;;6074520;23;20175;-92
2022/08/21 12:21:00;;;;;;;8.10;2.20;;;25.60;99.90;;;;;;6024297;23;20609;-92
2022/08/21 12:23:32;;;;;;;9.03;2.23;;;25.40;99.90;;;;;;6023102;23;20601;-92
2022/08/21 12:26:18;;;;;;;7.10;2.17;;;25.10;99.90;;;;;;6046033;23;20233;-90
2022/08/21 12:28:47;;;;;;;7.30;2.33;;;24.90;99.90;;;;;;6070739;23;20204;-90
2022/08/21 12:31:22;;;;;;;6.37;2.37;;;24.60;99.90;;;;;;6022869;23;20178;-92
2022/08/21 12:33:57;;;;;;;6.97;2.40;;;24.50;99.90;;;;;;6045840;23;20178;-91
2022/08/21 12:36:41;;;;;;;8.47;2.40;;;24.50;99.90;;;;;;6053927;23;20258;-59
2022/08/21 12:39:18;;;;;;;7.47;2.70;;;24.50;99.90;;;;;;6096572;23;20184;-59
2022/08/21 12:42:24;;;;;;;9.20;2.40;;;24.50;99.90;;;;;;6096441;23;20170;-59
2022/08/21 12:44:56;;;;;;;5.43;2.10;;;24.60;99.90;;;;;;6096963;23;20171;-58
2022/08/21 12:47:31;;;;;;;7.40;2.33;;;25.00;99.90;;;;;;6096991;23;20164;-59
2022/08/21 12:50:09;;;;;;;9.33;2.70;;;25.20;99.90;;;;;;6095791;23;20230;-58
2022/08/21 12:52:42;;;;;;;9.57;2.63;;;25.20;99.90;;;;;;6097856;23;20239;-58
2022/08/21 12:55:15;;;;;;;7.87;2.37;;;25.20;99.90;;;;;;6096930;23;20648;-58
2022/08/21 12:57:43;;;;;;;4.90;2.13;;;25.20;99.90;;;;;;6096130;23;20164;-59
2022/08/21 13:00:15;;;;;;;10.63;2.30;;;25.10;99.90;;;;;;6097178;23;20635;-59
2022/08/21 13:02:48;;;;;;;7.90;2.40;;;25.40;99.90;;;;;;6096655;23;20195;-58
2022/08/21 13:05:29;;;;;;;7.27;2.53;;;25.70;99.90;;;;;;6097362;23;20247;-59
2022/08/21 13:07:57;;;;;;;7.00;2.13;;;26.00;99.90;;;;;;6097037;23;20552;-59
2022/08/21 13:10:28;;;;;;;5.60;2.30;;;26.20;99.90;;;;;;6096671;23;20178;-59
2022/08/21 13:12:59;;;;;;;9.70;2.17;;;26.40;99.90;;;;;;6097664;23;20168;-59
2022/08/21 13:15:31;;;;;;;6.10;2.17;;;26.30;99.90;;;;;;6095511;23;20225;-58
2022/08/21 13:18:02;;;;;;;7.47;2.47;;;26.00;99.90;;;;;;6082262;23;20196;-58
2022/08/21 13:20:35;;;;;;;8.83;2.50;;;25.50;99.90;;;;;;6068448;23;20249;-58
2022/08/21 13:23:20;;;;;;;7.57;2.20;;;25.30;99.90;;;;;;6090793;23;20196;-58
2022/08/21 13:25:49;;;;;;;6.13;2.17;;;25.10;99.90;;;;;;6067361;23;20191;-59
2022/08/21 13:28:17;;;;;;;8.27;2.30;;;25.10;99.90;;;;;;6067750;23;20251;-58
2022/08/21 13:30:49;;;;;;;8.37;2.07;;;25.50;99.90;;;;;;6066944;23;20260;-58
2022/08/21 13:33:26;;;;;;;13.10;2.67;;;25.90;99.90;;;;;;6066587;23;20258;-59
2022/08/21 13:36:11;;;;;;;8.30;2.23;;;26.10;99.90;;;;;;6067077;23;20196;-58
2022/08/21 13:38:42;;;;;;;8.60;2.50;;;26.20;99.90;;;;;;6068108;23;20160;-58
2022/08/21 13:41:20;;;;;;;9.67;2.80;;;26.00;99.90;;;;;;6066364;23;20216;-58
2022/08/21 13:43:56;;;;;;;4.53;2.07;;;26.00;99.90;;;;;;6067188;23;20174;-58
2022/08/21 13:46:28;;;;;;;7.20;2.40;;;25.90;99.90;;;;;;6041658;23;20198;-58
2022/08/21 13:48:57;;;;;;;5.03;1.97;;;25.90;99.90;;;;;;6067780;23;20161;-58
2022/08/21 13:51:27;;;;;;;6.60;2.20;;;25.70;99.90;;;;;;6042658;23;20182;-58
2022/08/21 13:53:55;;;;;;;5.87;1.93;;;25.60;99.90;;;;;;6067016;23;20259;-58
2022/08/21 13:56:25;;;;;;;7.17;2.40;;;25.60;99.90;;;;;;6067070;23;20636;-59
2022/08/21 13:58:54;;;;;;;9.33;2.50;;;25.70;99.90;;;;;;6067423;23;20247;-59
2022/08/21 14:01:26;;;;;;;6.80;2.47;;;25.80;99.90;;;;;;6067202;23;20201;-58
2022/08/21 14:03:59;;;;;;;4.27;2.30;;;25.80;99.90;;;;;;6067002;23;20168;-59
2022/08/21 14:06:34;;;;;;;4.00;2.07;;;25.90;99.90;;;;;;6066996;23;20282;-59
2022/08/21 14:09:12;;;;;;;5.77;2.30;;;25.80;99.90;;;;;;6041705;23;20267;-59
2022/08/21 14:11:41;;;;;;;5.97;2.33;;;25.80;99.90;;;;;;6067218;23;20241;-58
2022/08/21 14:14:21;;;;;;;10.00;2.73;;;25.80;99.90;;;;;;6067256;23;20592;-59
2022/08/21 14:16:56;;;;;;;8.93;2.37;;;25.70;99.90;;;;;;6067302;23;20471;-59
2022/08/21 14:19:26;;;;;;;6.10;2.23;;;25.60;99.90;;;;;;6041689;23;20171;-59
2022/08/21 14:21:56;;;;;;;8.00;2.67;;;25.50;99.90;;;;;;6067055;23;20173;-59
2022/08/21 14:24:29;;;;;;;9.63;2.47;;;25.40;99.90;;;;;;6065746;23;20173;-62
2022/08/21 14:27:03;;;;;;;8.27;2.63;;;25.30;99.90;;;;;;6010877;23;20250;-61
2022/08/21 14:29:36;;;;;;;6.93;2.70;;;25.20;99.90;;;;;;6010665;23;20185;-60
2022/08/21 14:32:11;;;;;;;6.03;2.50;;;25.20;99.90;;;;;;6011038;23;20224;-61
2022/08/21 14:34:52;;;;;;;7.13;2.33;;;25.30;99.90;;;;;;5986092;23;20178;-61